This is the latest recevied weather packets stored in our database for station/object M7PDA-1. If no packets are shown the sender has not sent any weather packets the latest 10 day(s).
| Time | Temp. | Humidity | Pressure | Rain* | Wind** | Luminosity | Snow |
|---|---|---|---|---|---|---|---|
| 1777896501 | 15.56° C | 65% | 1017.5 hPa | - | - | - | - |
| 1777895600 | 15° C | 66% | 1017.5 hPa | - | - | - | - |
| 1777894699 | 14.44° C | 67% | 1017.5 hPa | - | - | - | - |
| 1777893799 | 13.33° C | 69% | 1017.6 hPa | - | - | - | - |
| 1777892898 | 13.89° C | 70% | 1017.5 hPa | - | - | - | - |
| 1777891997 | 13.33° C | 71% | 1017.5 hPa | - | - | - | - |
| 1777891096 | 12.22° C | 73% | 1017.6 hPa | - | - | - | - |
| 1777890195 | 12.22° C | 72% | 1017.5 hPa | - | - | - | - |
| 1777889295 | 12.22° C | 73% | 1017.5 hPa | - | - | - | - |
| 1777888394 | 12.22° C | 73% | 1017.3 hPa | - | - | - | - |
| 1777887493 | 11.67° C | 75% | 1017.4 hPa | - | - | - | - |
| 1777886592 | 11.11° C | 76% | 1017.3 hPa | - | - | - | - |
| 1777885691 | 11.11° C | 76% | 1017.3 hPa | - | - | - | - |
| 1777884791 | 11.11° C | 77% | 1017.2 hPa | - | - | - | - |
| 1777883890 | 11.11° C | 78% | 1017 hPa | - | - | - | - |
| 1777882989 | 10.56° C | 79% | 1016.9 hPa | - | - | - | - |
| 1777882088 | 10.56° C | 80% | 1016.7 hPa | - | - | - | - |
| 1777881188 | 10° C | 81% | 1016.6 hPa | - | - | - | - |
| 1777880287 | 10° C | 81% | 1016.5 hPa | - | - | - | - |
| 1777879386 | 10.56° C | 82% | 1016.3 hPa | - | - | - | - |
| 1777878485 | 9.44° C | 83% | 1016.2 hPa | - | - | - | - |
| 1777877584 | 8.89° C | 83% | 1016.2 hPa | - | - | - | - |
| 1777876683 | 8.89° C | 83% | 1016.1 hPa | - | - | - | - |
| 1777875782 | 8.89° C | 82% | 1016 hPa | - | - | - | - |
| 1777874882 | 8.89° C | 82% | 1015.9 hPa | - | - | - | - |
* Rain since midnight (hover to see other rain measurements)
** Current wind speed in m/s (hover to see current wind gust speed)